createdAt,value
2019-02-07T00:01:38.126Z,99.99
2019-02-07T00:02:38.119Z,99.99
2019-02-07T00:03:38.328Z,99.99
2019-02-07T00:05:38.104Z,99.99
2019-02-07T00:06:38.295Z,99.99
2019-02-07T00:07:39.198Z,99.99
2019-02-07T00:09:41.127Z,99.99
2019-02-07T00:11:38.274Z,99.99
2019-02-07T00:12:38.269Z,99.99
2019-02-07T00:13:38.268Z,99.99
2019-02-07T00:14:39.983Z,99.99
2019-02-07T00:16:38.059Z,99.99
2019-02-07T00:19:38.019Z,99.99
2019-02-07T00:20:38.220Z,99.99
2019-02-07T00:22:39.324Z,99.99
2019-02-07T00:23:38.197Z,99.99
2019-02-07T00:24:43.004Z,99.99
2019-02-07T00:25:38.527Z,99.99
2019-02-07T00:26:38.405Z,99.99
2019-02-07T00:28:39.081Z,99.99
2019-02-07T00:29:37.981Z,99.99
2019-02-07T00:30:37.992Z,99.99
2019-02-07T00:31:38.403Z,99.99
2019-02-07T00:33:37.957Z,99.99
2019-02-07T00:34:37.963Z,99.99
2019-02-07T00:35:38.370Z,99.99
2019-02-07T00:36:38.163Z,99.99
2019-02-07T00:37:37.958Z,99.99
2019-02-07T00:38:37.936Z,99.99
2019-02-07T00:40:38.141Z,99.99
2019-02-07T00:41:37.924Z,99.99
2019-02-07T00:42:37.919Z,99.99
2019-02-07T00:43:38.553Z,99.99
2019-02-07T00:47:37.989Z,99.99
2019-02-07T00:48:37.894Z,99.99
2019-02-07T00:51:38.077Z,99.99
2019-02-07T00:52:38.174Z,99.99
2019-02-07T00:53:38.475Z,99.99
2019-02-07T00:55:38.072Z,99.99
2019-02-07T00:56:39.712Z,99.99
2019-02-07T00:57:37.833Z,99.99
2019-02-07T00:58:37.854Z,99.99
2019-02-07T00:59:38.035Z,99.99
2019-02-07T01:01:38.147Z,99.99
2019-02-07T01:03:38.028Z,99.99
2019-02-07T01:04:38.021Z,99.99
2019-02-07T01:06:37.811Z,99.99
2019-02-07T01:07:38.436Z,99.99
2019-02-07T01:08:37.999Z,99.99
2019-02-07T01:09:37.795Z,99.99
2019-02-07T01:11:38.360Z,99.99
2019-02-07T01:12:37.793Z,99.99
2019-02-07T01:13:39.299Z,99.99
2019-02-07T01:14:37.965Z,99.99
2019-02-07T01:15:38.162Z,99.99
2019-02-07T01:16:41.403Z,99.99
2019-02-07T01:18:37.935Z,99.99
2019-02-07T01:21:38.227Z,99.99
2019-02-07T01:22:37.725Z,99.99
2019-02-07T01:23:37.920Z,99.99
2019-02-07T01:24:37.913Z,99.99
2019-02-07T01:25:38.322Z,99.99
2019-02-07T01:26:37.964Z,99.99
2019-02-07T01:28:37.888Z,99.99
2019-02-07T01:29:38.092Z,99.99
2019-02-07T01:30:37.689Z,99.99
2019-02-07T01:31:37.679Z,99.99
2019-02-07T01:36:37.646Z,99.99
2019-02-07T01:37:38.051Z,99.99
2019-02-07T01:38:38.042Z,99.99
2019-02-07T01:40:38.435Z,99.99
2019-02-07T01:41:37.640Z,99.99
2019-02-07T01:43:37.610Z,99.99
2019-02-07T01:46:37.784Z,99.99
2019-02-07T01:47:37.782Z,99.99
2019-02-07T01:48:37.606Z,99.99
2019-02-07T01:49:38.401Z,99.99
2019-02-07T01:51:37.984Z,99.99
2019-02-07T01:52:37.889Z,99.99
2019-02-07T01:53:37.559Z,99.99
2019-02-07T01:55:37.552Z,99.99
2019-02-07T01:56:37.946Z,99.99
2019-02-07T01:57:37.750Z,99.99
2019-02-07T01:59:37.539Z,99.99
2019-02-07T02:01:38.120Z,99.99
2019-02-07T02:03:37.529Z,99.99
2019-02-07T02:05:37.700Z,99.99
2019-02-07T02:06:37.516Z,99.99
2019-02-07T02:07:37.499Z,99.99
2019-02-07T02:08:38.304Z,99.99
2019-02-07T02:10:37.480Z,99.99
2019-02-07T02:11:37.690Z,99.99
2019-02-07T02:12:37.657Z,99.99
2019-02-07T02:14:37.646Z,99.99
2019-02-07T02:16:37.848Z,99.99
2019-02-07T02:17:37.630Z,99.99
2019-02-07T02:18:37.435Z,99.99
2019-02-07T02:22:37.607Z,99.99
2019-02-07T02:23:37.404Z,99.99
2019-02-07T02:24:37.418Z,99.99
2019-02-07T02:25:37.391Z,99.99
2019-02-07T02:27:37.593Z,99.99
2019-02-07T02:28:37.989Z,99.99
2019-02-07T02:30:37.773Z,99.99
2019-02-07T02:31:37.559Z,99.99
2019-02-07T02:32:37.356Z,99.99
2019-02-07T02:38:37.318Z,99.99
2019-02-07T02:39:37.329Z,99.99
2019-02-07T02:40:37.311Z,99.99
2019-02-07T02:41:37.505Z,99.99
2019-02-07T02:42:37.314Z,99.99
2019-02-07T02:45:38.080Z,99.99
2019-02-07T02:47:37.406Z,99.99
2019-02-07T02:49:37.862Z,99.99
2019-02-07T02:50:37.958Z,99.99
2019-02-07T02:52:40.201Z,99.99
2019-02-07T02:53:37.436Z,99.99
2019-02-07T02:54:37.447Z,99.99
2019-02-07T02:58:37.219Z,99.99
2019-02-07T03:01:37.705Z,99.99
2019-02-07T03:02:37.391Z,99.99
2019-02-07T03:03:37.190Z,99.99
2019-02-07T03:04:38.125Z,99.99
2019-02-07T03:06:37.374Z,99.99
2019-02-07T03:07:37.549Z,99.99
2019-02-07T03:11:37.943Z,99.99
2019-02-07T03:12:38.246Z,99.99
2019-02-07T03:13:37.125Z,99.99
2019-02-07T03:14:37.121Z,99.99
2019-02-07T03:16:37.138Z,99.99
2019-02-07T03:17:37.721Z,99.99
2019-02-07T03:19:37.905Z,99.99
2019-02-07T03:21:37.099Z,99.99
2019-02-07T03:23:37.068Z,99.99
2019-02-07T03:24:37.068Z,99.99
2019-02-07T03:26:37.670Z,99.99
2019-02-07T03:27:37.145Z,99.99
2019-02-07T03:28:37.456Z,99.99
2019-02-07T03:29:37.038Z,99.99
2019-02-07T03:30:37.841Z,99.99
2019-02-07T03:31:37.029Z,99.99
2019-02-07T03:33:37.021Z,99.99
2019-02-07T03:35:37.618Z,99.99
2019-02-07T03:37:37.510Z,99.99
2019-02-07T03:40:36.984Z,99.99
2019-02-07T03:41:37.195Z,99.99
2019-02-07T03:42:37.278Z,99.99
2019-02-07T03:43:37.385Z,99.99
2019-02-07T03:47:36.950Z,99.99
2019-02-07T03:50:37.341Z,99.99
2019-02-07T03:51:37.120Z,99.99
2019-02-07T03:52:37.210Z,99.99
2019-02-07T03:53:37.130Z,99.99
2019-02-07T03:55:37.118Z,99.99
2019-02-07T03:57:36.908Z,99.99
2019-02-07T03:58:36.889Z,99.99
2019-02-07T04:00:38.310Z,99.99
2019-02-07T04:01:36.890Z,99.99
2019-02-07T04:02:37.061Z,99.99
2019-02-07T04:04:36.875Z,99.99
2019-02-07T04:05:36.852Z,99.99
2019-02-07T04:06:37.043Z,99.99
2019-02-07T04:08:37.648Z,99.99
2019-02-07T04:11:36.954Z,99.99
2019-02-07T04:13:36.799Z,99.99
2019-02-07T04:14:36.808Z,99.99
2019-02-07T04:15:36.995Z,99.99
2019-02-07T04:17:36.812Z,99.99
2019-02-07T04:18:37.383Z,99.99
2019-02-07T04:19:37.083Z,99.99
2019-02-07T04:20:36.770Z,99.99
2019-02-07T04:21:37.595Z,99.99
2019-02-07T04:22:36.771Z,99.99
2019-02-07T04:23:37.061Z,99.99
2019-02-07T04:24:37.465Z,99.99
2019-02-07T04:25:37.156Z,99.99
2019-02-07T04:26:40.692Z,99.99
2019-02-07T04:30:36.929Z,99.99
2019-02-07T04:31:36.908Z,99.99
2019-02-07T04:32:36.908Z,99.99
2019-02-07T04:33:36.921Z,99.99
2019-02-07T04:35:36.748Z,99.99
2019-02-07T04:36:36.948Z,99.99
2019-02-07T04:38:36.880Z,99.99
2019-02-07T04:40:37.263Z,99.99
2019-02-07T04:41:36.651Z,99.99
2019-02-07T04:42:36.674Z,99.99
2019-02-07T04:45:36.648Z,99.99
2019-02-07T04:46:36.835Z,99.99
2019-02-07T04:48:36.637Z,99.99
2019-02-07T04:49:37.022Z,99.99
2019-02-07T04:50:36.922Z,99.99
2019-02-07T04:52:36.613Z,99.99
2019-02-07T04:54:36.590Z,99.99
2019-02-07T04:56:36.810Z,99.99
2019-02-07T04:57:36.772Z,99.99
2019-02-07T04:58:37.501Z,99.99
2019-02-07T04:59:36.601Z,99.99
2019-02-07T05:00:36.565Z,99.99
2019-02-07T05:01:36.952Z,99.99
2019-02-07T05:02:37.472Z,99.99
2019-02-07T05:03:37.356Z,99.99
2019-02-07T05:04:36.749Z,99.99
2019-02-07T05:05:36.741Z,99.99
2019-02-07T05:06:36.524Z,99.99
2019-02-07T05:07:36.525Z,99.99
2019-02-07T05:09:36.530Z,99.99
2019-02-07T05:10:36.715Z,99.99
2019-02-07T05:12:36.481Z,99.99
2019-02-07T05:15:36.682Z,99.99
2019-02-07T05:16:40.162Z,99.99
2019-02-07T05:17:36.877Z,99.99
2019-02-07T05:18:36.448Z,99.99
2019-02-07T05:19:36.446Z,99.99
2019-02-07T05:20:36.735Z,99.99
2019-02-07T05:21:36.855Z,99.99
2019-02-07T05:22:36.443Z,99.99
2019-02-07T05:26:36.407Z,99.99
2019-02-07T05:28:36.800Z,99.99
2019-02-07T05:30:36.398Z,99.99
2019-02-07T05:32:36.891Z,99.99
2019-02-07T05:33:36.623Z,99.99
2019-02-07T05:34:36.385Z,99.99
2019-02-07T05:36:36.758Z,99.99
2019-02-07T05:38:36.747Z,99.99
2019-02-07T05:39:37.060Z,99.99
2019-02-07T05:40:36.531Z,99.99
2019-02-07T05:41:36.331Z,99.99
2019-02-07T05:43:36.306Z,99.99
2019-02-07T05:44:36.321Z,99.99
2019-02-07T05:45:36.318Z,99.99
2019-02-07T05:46:36.520Z,99.99
2019-02-07T05:47:36.295Z,99.99
2019-02-07T05:48:36.288Z,99.99
2019-02-07T05:49:37.823Z,99.99
2019-02-07T05:51:36.499Z,99.99
2019-02-07T05:52:36.695Z,99.99
2019-02-07T05:53:36.288Z,99.99
2019-02-07T05:55:36.657Z,99.99
2019-02-07T05:56:36.252Z,99.99
2019-02-07T05:57:36.548Z,99.99
2019-02-07T05:59:36.954Z,99.99
2019-02-07T06:00:36.226Z,99.99
2019-02-07T06:01:36.941Z,99.99
2019-02-07T06:02:37.134Z,99.99
2019-02-07T06:05:36.809Z,99.99
2019-02-07T06:07:36.193Z,99.99
2019-02-07T06:11:36.171Z,99.99
2019-02-07T06:16:36.138Z,99.99
2019-02-07T06:19:37.639Z,99.99
2019-02-07T06:20:36.324Z,99.99
2019-02-07T06:21:36.529Z,99.99
2019-02-07T06:23:36.293Z,99.99
2019-02-07T06:24:36.303Z,99.99
2019-02-07T06:25:37.030Z,99.99
2019-02-07T06:26:36.322Z,99.99
2019-02-07T06:27:37.199Z,99.99
2019-02-07T06:29:36.087Z,99.99
2019-02-07T06:30:36.062Z,99.99
2019-02-07T06:31:36.678Z,99.99
2019-02-07T06:32:36.873Z,99.99
2019-02-07T06:33:36.250Z,99.99
2019-02-07T06:34:36.040Z,99.99
2019-02-07T06:35:36.432Z,99.99
2019-02-07T06:36:36.038Z,99.99
2019-02-07T06:37:36.437Z,99.99
2019-02-07T06:38:36.224Z,99.99
2019-02-07T06:39:36.931Z,99.99
2019-02-07T06:40:36.025Z,99.99
2019-02-07T06:43:36.206Z,99.99
2019-02-07T06:44:35.987Z,99.99
2019-02-07T06:45:36.498Z,99.99
2019-02-07T06:46:36.178Z,99.99
2019-02-07T06:47:35.969Z,99.99
2019-02-07T06:48:35.966Z,99.99
2019-02-07T06:49:36.160Z,99.99
2019-02-07T06:51:36.172Z,99.99
2019-02-07T06:54:35.939Z,99.99
2019-02-07T06:55:36.148Z,99.99
2019-02-07T06:56:36.536Z,99.99
2019-02-07T06:57:35.931Z,99.99
2019-02-07T06:58:36.831Z,99.99
2019-02-07T06:59:36.105Z,99.99
2019-02-07T07:02:36.109Z,99.99
2019-02-07T07:03:35.911Z,99.99
2019-02-07T07:06:36.886Z,99.99
2019-02-07T07:07:36.469Z,99.99
2019-02-07T07:08:35.859Z,99.99
2019-02-07T07:09:35.851Z,99.99
2019-02-07T07:10:36.276Z,99.99
2019-02-07T07:11:35.858Z,99.99
2019-02-07T07:12:35.864Z,99.99
2019-02-07T07:15:35.832Z,99.99
2019-02-07T07:17:36.234Z,99.99
2019-02-07T07:18:35.829Z,99.99
2019-02-07T07:19:35.810Z,99.99
2019-02-07T07:20:36.021Z,99.99
2019-02-07T07:21:36.205Z,99.99
2019-02-07T07:24:35.788Z,99.99
2019-02-07T07:25:35.974Z,99.99
2019-02-07T07:26:36.186Z,99.99
2019-02-07T07:27:35.760Z,99.99
2019-02-07T07:28:35.767Z,99.99
2019-02-07T07:31:35.749Z,99.99
2019-02-07T07:32:35.760Z,99.99
2019-02-07T07:35:35.724Z,99.99
2019-02-07T07:36:35.737Z,99.99
2019-02-07T07:37:38.995Z,99.99
2019-02-07T07:38:35.708Z,99.99
2019-02-07T07:39:36.355Z,99.99
2019-02-07T07:41:35.893Z,99.99
2019-02-07T07:42:36.121Z,99.99
2019-02-07T07:43:35.891Z,99.99
2019-02-07T07:45:36.385Z,99.99
2019-02-07T07:46:36.272Z,99.99
2019-02-07T07:47:36.363Z,99.99
2019-02-07T07:49:35.669Z,99.99
2019-02-07T07:50:35.650Z,99.99
2019-02-07T07:52:36.049Z,99.99
2019-02-07T07:54:35.830Z,99.99
2019-02-07T07:55:35.615Z,99.99
2019-02-07T07:58:35.603Z,99.99
2019-02-07T08:04:35.777Z,99.99
2019-02-07T08:07:35.551Z,99.99
2019-02-07T08:08:35.550Z,99.99
2019-02-07T08:10:36.561Z,99.99
2019-02-07T08:12:36.639Z,99.99
2019-02-07T08:13:35.745Z,99.99
2019-02-07T08:14:35.747Z,99.99
2019-02-07T08:15:36.027Z,99.99
2019-02-07T08:16:35.725Z,99.99
2019-02-07T08:19:35.781Z,99.99
2019-02-07T08:20:36.404Z,99.99
2019-02-07T08:23:35.490Z,99.99
2019-02-07T08:24:35.703Z,99.99
2019-02-07T08:25:35.472Z,99.99
2019-02-07T08:27:35.460Z,99.99
2019-02-07T08:29:35.447Z,99.99
2019-02-07T08:30:36.786Z,99.99
2019-02-07T08:31:35.463Z,99.99
2019-02-07T08:38:35.609Z,99.99
2019-02-07T08:39:35.666Z,99.99
2019-02-07T08:40:35.412Z,99.99
2019-02-07T08:41:35.407Z,99.99
2019-02-07T08:45:35.792Z,99.99
2019-02-07T08:46:35.827Z,99.99
2019-02-07T08:47:35.378Z,99.99
2019-02-07T08:48:35.772Z,99.99
2019-02-07T08:50:35.350Z,99.99
2019-02-07T08:51:35.646Z,99.99
2019-02-07T08:52:35.339Z,99.99
2019-02-07T08:53:35.328Z,99.99
2019-02-07T08:54:35.577Z,99.99
2019-02-07T08:55:35.809Z,99.99
2019-02-07T08:56:35.319Z,99.99
2019-02-07T08:57:35.491Z,99.99
2019-02-07T08:58:35.496Z,99.99
2019-02-07T08:59:36.240Z,99.99
2019-02-07T09:00:36.212Z,99.99
2019-02-07T09:03:35.274Z,99.99
2019-02-07T09:04:36.089Z,99.99
2019-02-07T09:06:35.665Z,99.99
2019-02-07T09:07:35.243Z,99.99
2019-02-07T09:08:35.257Z,99.99
2019-02-07T09:10:35.243Z,99.99
2019-02-07T09:11:35.555Z,99.99
2019-02-07T09:12:35.437Z,99.99
2019-02-07T09:13:35.243Z,99.99
2019-02-07T09:14:35.436Z,99.99
2019-02-07T09:15:35.629Z,99.99
2019-02-07T09:16:35.219Z,99.99
2019-02-07T09:18:35.421Z,99.99
2019-02-07T09:19:35.208Z,99.99
2019-02-07T09:20:35.410Z,99.99
2019-02-07T09:22:35.208Z,99.99
2019-02-07T09:23:35.606Z,99.99
2019-02-07T09:25:35.578Z,99.99
2019-02-07T09:26:35.461Z,99.99
2019-02-07T09:27:35.674Z,99.99
2019-02-07T09:29:36.070Z,99.99
2019-02-07T09:30:35.142Z,99.99
2019-02-07T09:31:35.152Z,99.99
2019-02-07T09:32:35.135Z,99.99
2019-02-07T09:34:35.146Z,99.99
2019-02-07T09:37:35.335Z,99.99
2019-02-07T09:38:35.737Z,99.99
2019-02-07T09:39:35.603Z,99.99
2019-02-07T09:40:35.120Z,99.99
2019-02-07T09:42:35.103Z,99.99
2019-02-07T09:43:35.925Z,99.99
2019-02-07T09:45:35.296Z,99.99
2019-02-07T09:46:35.096Z,99.99
2019-02-07T09:47:35.067Z,99.99
2019-02-07T09:48:35.071Z,99.99
2019-02-07T09:49:35.082Z,99.99
2019-02-07T09:50:35.063Z,99.99
2019-02-07T09:52:35.072Z,99.99
2019-02-07T09:54:35.054Z,99.99
2019-02-07T09:56:35.859Z,99.99
2019-02-07T09:57:35.773Z,99.99
2019-02-07T09:58:35.050Z,99.99
2019-02-07T10:00:35.640Z,99.99
2019-02-07T10:01:35.231Z,99.99
2019-02-07T10:04:35.011Z,99.99
2019-02-07T10:05:35.203Z,99.99
2019-02-07T10:06:35.624Z,99.99
2019-02-07T10:10:34.984Z,99.99
2019-02-07T10:12:34.974Z,99.99
2019-02-07T10:14:35.172Z,99.99
2019-02-07T10:17:35.162Z,99.99
2019-02-07T10:18:34.948Z,99.99
2019-02-07T10:20:37.281Z,99.99
2019-02-07T10:23:35.194Z,99.99
2019-02-07T10:25:35.758Z,99.99
2019-02-07T10:27:34.893Z,99.99
2019-02-07T10:28:34.926Z,99.99
2019-02-07T10:29:34.897Z,99.99
2019-02-07T10:30:34.899Z,99.99
2019-02-07T10:31:34.903Z,99.99
2019-02-07T10:33:34.887Z,99.99
2019-02-07T10:34:35.282Z,99.99
2019-02-07T10:35:35.287Z,99.99
2019-02-07T10:39:34.868Z,99.99
2019-02-07T10:40:35.062Z,99.99
2019-02-07T10:41:34.863Z,99.99
2019-02-07T10:42:34.850Z,99.99
2019-02-07T10:43:34.835Z,99.99
2019-02-07T10:44:34.870Z,99.99
2019-02-07T10:45:35.053Z,99.99
2019-02-07T10:46:34.847Z,99.99
2019-02-07T10:47:35.757Z,99.99
2019-02-07T10:48:44.253Z,99.99
2019-02-07T10:49:34.821Z,99.99
2019-02-07T10:51:34.811Z,99.99
2019-02-07T10:52:35.032Z,99.99
2019-02-07T10:53:35.116Z,99.99
2019-02-07T10:54:35.215Z,99.99
2019-02-07T10:55:34.797Z,99.99
2019-02-07T10:56:34.808Z,99.99
2019-02-07T10:59:35.315Z,99.99
2019-02-07T11:00:34.780Z,99.99
2019-02-07T11:01:35.071Z,99.99
2019-02-07T11:03:35.188Z,99.99
2019-02-07T11:04:35.287Z,99.99
2019-02-07T11:05:34.778Z,99.99
2019-02-07T11:06:35.187Z,99.99
2019-02-07T11:07:34.757Z,99.99
2019-02-07T11:08:34.757Z,99.99
2019-02-07T11:11:34.764Z,99.99
2019-02-07T11:12:34.743Z,99.99
2019-02-07T11:15:34.742Z,99.99
2019-02-07T11:16:34.971Z,99.99
2019-02-07T11:17:35.134Z,99.99
2019-02-07T11:18:35.030Z,99.99
2019-02-07T11:19:34.748Z,99.99
2019-02-07T11:21:34.723Z,99.99
2019-02-07T11:22:34.911Z,99.99
2019-02-07T11:23:34.713Z,99.99
2019-02-07T11:25:35.410Z,99.99
2019-02-07T11:27:34.882Z,99.99
2019-02-07T11:28:34.993Z,99.99
2019-02-07T11:29:34.889Z,99.99
2019-02-07T11:30:35.286Z,99.99
2019-02-07T11:32:34.871Z,99.99
2019-02-07T11:33:35.288Z,99.99
2019-02-07T11:36:34.668Z,99.99
2019-02-07T11:37:34.870Z,99.99
2019-02-07T11:41:35.258Z,99.99
2019-02-07T11:42:34.632Z,99.99
2019-02-07T11:43:34.838Z,99.99
2019-02-07T11:44:34.835Z,99.99
2019-02-07T11:45:35.053Z,99.99
2019-02-07T11:46:37.562Z,99.99
2019-02-07T11:47:35.103Z,99.99
2019-02-07T11:50:34.613Z,99.99
2019-02-07T11:51:34.611Z,99.99
2019-02-07T11:53:34.608Z,99.99
2019-02-07T11:55:34.593Z,99.99
2019-02-07T11:56:34.614Z,99.99
2019-02-07T11:57:34.582Z,99.99
2019-02-07T11:58:34.620Z,99.99
2019-02-07T11:59:35.012Z,99.99
2019-02-07T12:00:34.768Z,99.99
2019-02-07T12:01:34.796Z,99.99
2019-02-07T12:02:34.784Z,99.99
2019-02-07T12:03:35.188Z,99.99
2019-02-07T12:04:34.978Z,99.99
2019-02-07T12:06:34.559Z,99.99
2019-02-07T12:07:34.754Z,99.99
2019-02-07T12:08:34.926Z,99.99
2019-02-07T12:09:34.520Z,99.99
2019-02-07T12:10:35.268Z,99.99
2019-02-07T12:11:34.526Z,99.99
2019-02-07T12:13:34.512Z,99.99
2019-02-07T12:14:34.536Z,99.99
2019-02-07T12:15:34.517Z,99.99
2019-02-07T12:16:34.506Z,99.99
2019-02-07T12:17:34.499Z,99.99
2019-02-07T12:18:34.707Z,99.99
2019-02-07T12:19:34.508Z,99.99
2019-02-07T12:20:34.505Z,99.99
2019-02-07T12:21:34.523Z,99.99
2019-02-07T12:22:37.266Z,99.99
2019-02-07T12:23:34.498Z,99.99
2019-02-07T12:24:34.488Z,99.99
2019-02-07T12:25:34.495Z,99.99
2019-02-07T12:27:34.491Z,99.99
2019-02-07T12:28:36.180Z,99.99
2019-02-07T12:29:34.467Z,99.99
2019-02-07T12:30:34.780Z,99.99
2019-02-07T12:31:34.662Z,99.99
2019-02-07T12:32:34.659Z,99.99
2019-02-07T12:33:34.652Z,99.99
2019-02-07T12:34:34.669Z,99.99
2019-02-07T12:35:34.437Z,99.99
2019-02-07T12:36:34.655Z,99.99
2019-02-07T12:37:34.640Z,99.99
2019-02-07T12:39:34.426Z,99.99
2019-02-07T12:41:34.643Z,99.99
2019-02-07T12:43:34.429Z,99.99
2019-02-07T12:44:34.414Z,99.99
2019-02-07T12:45:34.630Z,99.99
2019-02-07T12:46:34.433Z,99.99
2019-02-07T12:47:34.401Z,99.99
2019-02-07T12:48:34.709Z,99.99
2019-02-07T12:49:34.397Z,99.99
2019-02-07T12:51:34.400Z,99.99
2019-02-07T12:52:34.400Z,99.99
2019-02-07T12:53:34.848Z,99.99
2019-02-07T12:55:34.798Z,99.99
2019-02-07T12:56:34.765Z,99.99
2019-02-07T12:57:34.369Z,99.99
2019-02-07T12:58:34.359Z,99.74
2019-02-07T12:59:34.365Z,99.08
2019-02-07T13:00:34.378Z,99.55
2019-02-07T13:01:34.566Z,99.55
2019-02-07T13:02:34.352Z,99.99
2019-02-07T13:03:34.556Z,99.46
2019-02-07T13:04:34.740Z,98.18
2019-02-07T13:05:34.659Z,99.41
2019-02-07T13:07:34.320Z,97.99
2019-02-07T13:08:34.313Z,99.99
2019-02-07T13:09:34.313Z,99.69
2019-02-07T13:10:34.328Z,99.55
2019-02-07T13:11:34.308Z,99.60
2019-02-07T13:12:34.338Z,99.99
2019-02-07T13:13:34.322Z,99.99
2019-02-07T13:14:34.621Z,99.98
2019-02-07T13:15:34.311Z,99.32
2019-02-07T13:16:34.293Z,99.99
2019-02-07T13:17:34.331Z,99.99
2019-02-07T13:18:34.338Z,99.99
2019-02-07T13:19:40.498Z,99.99
2019-02-07T13:21:34.298Z,99.99
2019-02-07T13:22:34.294Z,99.99
2019-02-07T13:23:34.317Z,99.99
2019-02-07T13:24:34.287Z,99.99
2019-02-07T13:26:34.742Z,99.99
2019-02-07T13:27:34.285Z,99.46
2019-02-07T13:28:34.255Z,98.60
2019-02-07T13:29:34.297Z,99.99
2019-02-07T13:30:34.476Z,99.93
2019-02-07T13:31:34.387Z,99.69
2019-02-07T13:32:34.340Z,98.22
2019-02-07T13:33:34.511Z,98.88
2019-02-07T13:34:34.253Z,97.79
2019-02-07T13:35:34.621Z,97.60
2019-02-07T13:36:34.276Z,98.79
2019-02-07T13:37:34.694Z,98.50
2019-02-07T13:38:34.230Z,98.22
2019-02-07T13:40:34.746Z,97.36
2019-02-07T13:41:34.219Z,97.65
2019-02-07T13:42:34.232Z,97.27
2019-02-07T13:43:34.422Z,98.32
2019-02-07T13:44:34.227Z,97.17
2019-02-07T13:45:34.209Z,98.03
2019-02-07T13:46:34.212Z,96.60
2019-02-07T13:47:34.190Z,96.60
2019-02-07T13:48:34.205Z,96.51
2019-02-07T13:49:34.200Z,97.74
2019-02-07T13:50:34.612Z,96.70
2019-02-07T13:51:34.178Z,96.98
2019-02-07T13:53:34.595Z,96.89
2019-02-07T13:55:34.190Z,97.27
2019-02-07T13:56:34.600Z,95.56
2019-02-07T13:57:34.173Z,96.03
2019-02-07T13:58:34.182Z,96.22
2019-02-07T13:59:34.145Z,96.79
2019-02-07T14:00:34.160Z,96.31
2019-02-07T14:02:34.377Z,97.46
2019-02-07T14:03:34.130Z,95.60
2019-02-07T14:04:34.357Z,95.98
2019-02-07T14:05:34.151Z,95.79
2019-02-07T14:06:34.734Z,96.27
2019-02-07T14:07:34.141Z,96.79
2019-02-07T14:08:38.402Z,96.27
2019-02-07T14:09:34.132Z,94.51
2019-02-07T14:10:34.129Z,94.27
2019-02-07T14:11:34.149Z,94.74
2019-02-07T14:12:34.128Z,94.51
2019-02-07T14:13:34.124Z,93.84
2019-02-07T14:14:34.529Z,93.60
2019-02-07T14:15:34.101Z,94.37
2019-02-07T14:16:34.105Z,94.46
2019-02-07T14:17:34.308Z,94.74
2019-02-07T14:19:34.314Z,94.56
2019-02-07T14:20:34.098Z,96.84
2019-02-07T14:21:34.609Z,95.79
2019-02-07T14:22:34.600Z,93.98
2019-02-07T14:23:34.402Z,94.56
2019-02-07T14:24:34.494Z,94.74
2019-02-07T14:25:34.285Z,93.84
2019-02-07T14:26:34.609Z,95.65
2019-02-07T14:27:34.487Z,95.75
2019-02-07T14:28:34.052Z,96.22
2019-02-07T14:29:34.250Z,95.94
2019-02-07T14:30:34.248Z,95.94
2019-02-07T14:31:34.050Z,97.36
2019-02-07T14:32:34.051Z,97.08
2019-02-07T14:33:34.064Z,95.75
2019-02-07T14:34:34.054Z,95.94
2019-02-07T14:35:34.237Z,96.98
2019-02-07T14:36:34.035Z,96.60
2019-02-07T14:37:34.023Z,95.46
2019-02-07T14:38:34.035Z,95.36
2019-02-07T14:39:34.041Z,96.03
2019-02-07T14:40:34.026Z,95.46
2019-02-07T14:41:34.334Z,95.36
2019-02-07T14:42:34.015Z,95.94
2019-02-07T14:43:34.074Z,96.51
2019-02-07T14:44:34.019Z,95.65
2019-02-07T14:45:34.029Z,96.98
2019-02-07T14:46:34.204Z,96.31
2019-02-07T14:47:34.215Z,95.08
2019-02-07T14:48:34.006Z,96.22
2019-02-07T14:49:33.997Z,94.98
2019-02-07T14:50:34.200Z,95.56
2019-02-07T14:51:33.997Z,95.65
2019-02-07T14:52:34.010Z,94.32
2019-02-07T14:53:33.972Z,94.13
2019-02-07T14:54:33.987Z,93.84
2019-02-07T14:55:33.979Z,94.70
2019-02-07T14:56:33.972Z,94.79
2019-02-07T14:57:33.989Z,95.75
2019-02-07T14:59:33.972Z,95.56
2019-02-07T15:00:33.971Z,95.56
2019-02-07T15:02:33.959Z,96.98
2019-02-07T15:03:33.945Z,96.60
2019-02-07T15:04:33.957Z,97.08
2019-02-07T15:05:33.943Z,95.46
2019-02-07T15:07:34.125Z,97.17
2019-02-07T15:08:33.929Z,98.03
2019-02-07T15:09:34.143Z,96.70
2019-02-07T15:10:34.227Z,97.55
2019-02-07T15:11:33.939Z,96.70
2019-02-07T15:12:33.913Z,97.27
2019-02-07T15:13:33.937Z,97.17
2019-02-07T15:14:33.915Z,97.84
2019-02-07T15:15:34.125Z,97.17
2019-02-07T15:17:33.900Z,96.41
2019-02-07T15:18:33.910Z,96.51
2019-02-07T15:19:33.896Z,94.70
2019-02-07T15:20:33.898Z,94.51
2019-02-07T15:21:33.889Z,95.36
2019-02-07T15:22:33.888Z,95.94
2019-02-07T15:23:33.878Z,96.03
2019-02-07T15:24:33.875Z,95.36
2019-02-07T15:25:33.883Z,94.89
2019-02-07T15:26:34.279Z,94.89
2019-02-07T15:27:34.061Z,94.89
2019-02-07T15:28:33.965Z,95.84
2019-02-07T15:29:33.879Z,95.75
2019-02-07T15:30:34.081Z,95.75
2019-02-07T15:31:33.840Z,95.56
2019-02-07T15:32:33.835Z,95.84
2019-02-07T15:33:33.846Z,96.22
2019-02-07T15:34:33.857Z,95.84
2019-02-07T15:35:34.359Z,96.79
2019-02-07T15:36:33.834Z,96.03
2019-02-07T15:37:34.028Z,95.36
2019-02-07T15:38:34.063Z,96.22
2019-02-07T15:39:33.852Z,95.17
2019-02-07T15:40:33.809Z,95.75
2019-02-07T15:41:33.840Z,95.98
2019-02-07T15:42:33.839Z,95.89
2019-02-07T15:43:33.831Z,95.51
2019-02-07T15:45:34.020Z,95.79
2019-02-07T15:46:33.884Z,95.98
2019-02-07T15:47:33.802Z,97.31
2019-02-07T15:48:33.803Z,96.84
2019-02-07T15:49:33.777Z,95.98
2019-02-07T15:50:38.310Z,95.32
2019-02-07T15:51:34.098Z,95.03
2019-02-07T15:52:33.784Z,95.22
2019-02-07T15:53:33.792Z,96.08
2019-02-07T15:54:33.979Z,95.89
2019-02-07T15:56:33.770Z,95.89
2019-02-07T15:57:33.773Z,96.08
2019-02-07T15:58:33.771Z,97.31
2019-02-07T15:59:34.180Z,96.46
2019-02-07T16:00:33.972Z,96.08
2019-02-07T16:01:33.761Z,96.65
2019-02-07T16:03:33.743Z,96.94
2019-02-07T16:04:33.946Z,96.17
2019-02-07T16:05:33.745Z,96.26
2019-02-07T16:06:33.953Z,96.74
2019-02-07T16:07:33.747Z,97.22
2019-02-07T16:08:34.135Z,97.41
2019-02-07T16:09:33.731Z,96.26
2019-02-07T16:10:33.939Z,96.94
2019-02-07T16:11:33.707Z,97.60
2019-02-07T16:12:33.935Z,97.13
2019-02-07T16:13:33.705Z,97.22
2019-02-07T16:14:33.723Z,96.94
2019-02-07T16:15:33.917Z,96.17
2019-02-07T16:16:33.719Z,95.70
2019-02-07T16:17:33.808Z,96.65
2019-02-07T16:18:33.891Z,96.74
2019-02-07T16:19:33.706Z,95.79
2019-02-07T16:20:34.315Z,95.89
2019-02-07T16:22:34.003Z,97.88
2019-02-07T16:23:33.666Z,96.55
2019-02-07T16:24:33.883Z,96.74
2019-02-07T16:26:33.674Z,97.13
2019-02-07T16:28:33.666Z,96.74
2019-02-07T16:29:33.878Z,96.84
2019-02-07T16:30:33.864Z,97.22
2019-02-07T16:31:33.859Z,97.69
2019-02-07T16:32:33.669Z,97.31
2019-02-07T16:33:33.854Z,97.13
2019-02-07T16:34:33.862Z,97.79
2019-02-07T16:35:33.659Z,97.41
2019-02-07T16:36:34.035Z,97.50
2019-02-07T16:37:33.635Z,97.88
2019-02-07T16:38:33.619Z,97.36
2019-02-07T16:39:33.631Z,98.46
2019-02-07T16:40:33.625Z,98.41
2019-02-07T16:41:33.621Z,98.97
2019-02-07T16:42:33.627Z,99.93
2019-02-07T16:43:33.620Z,99.64
2019-02-07T16:45:33.828Z,98.41
2019-02-07T16:46:33.601Z,99.07
2019-02-07T16:47:33.596Z,98.97
2019-02-07T16:48:33.608Z,99.93
2019-02-07T16:49:33.812Z,99.74
2019-02-07T16:50:33.576Z,99.99
2019-02-07T16:51:33.589Z,99.93
2019-02-07T16:52:33.786Z,99.99
2019-02-07T16:54:33.761Z,99.99
2019-02-07T16:55:33.564Z,99.99
2019-02-07T16:56:33.757Z,99.93
2019-02-07T16:57:33.554Z,99.93
2019-02-07T17:00:33.555Z,99.99
2019-02-07T17:01:34.061Z,99.99
2019-02-07T17:02:33.554Z,99.64
2019-02-07T17:03:33.572Z,99.93
2019-02-07T17:04:33.829Z,99.64
2019-02-07T17:06:34.154Z,99.99
2019-02-07T17:07:33.535Z,99.99
2019-02-07T17:08:33.521Z,99.99
2019-02-07T17:09:33.517Z,99.99
2019-02-07T17:10:33.527Z,99.99
2019-02-07T17:11:33.736Z,99.99
2019-02-07T17:12:33.699Z,99.99
2019-02-07T17:13:33.704Z,99.99
2019-02-07T17:14:33.530Z,99.99
2019-02-07T17:15:33.490Z,99.99
2019-02-07T17:16:33.496Z,99.99
2019-02-07T17:17:33.485Z,99.99
2019-02-07T17:18:33.505Z,99.99
2019-02-07T17:19:33.480Z,99.99
2019-02-07T17:20:33.681Z,99.99
2019-02-07T17:22:33.679Z,99.99